sensor_id;sensor_type;location;lat;lon;timestamp;P1;durP1;ratioP1;P2;durP2;ratioP2
56343;SDS011;42245;42.058;24.700;2023-06-22T00:00:51;10.38;;;9.27;;
56343;SDS011;42245;42.058;24.700;2023-06-22T00:03:17;10.10;;;9.10;;
56343;SDS011;42245;42.058;24.700;2023-06-22T00:05:43;10.02;;;8.95;;
56343;SDS011;42245;42.058;24.700;2023-06-22T00:08:09;10.07;;;9.02;;
56343;SDS011;42245;42.058;24.700;2023-06-22T00:10:34;10.20;;;8.88;;
56343;SDS011;42245;42.058;24.700;2023-06-22T00:13:00;9.82;;;8.82;;
56343;SDS011;42245;42.058;24.700;2023-06-22T00:15:25;13.00;;;9.50;;
56343;SDS011;42245;42.058;24.700;2023-06-22T00:17:51;11.77;;;9.00;;
56343;SDS011;42245;42.058;24.700;2023-06-22T00:20:16;10.35;;;9.35;;
56343;SDS011;42245;42.058;24.700;2023-06-22T00:22:43;11.18;;;9.40;;
56343;SDS011;42245;42.058;24.700;2023-06-22T00:25:09;12.00;;;9.07;;
56343;SDS011;42245;42.058;24.700;2023-06-22T00:27:35;12.50;;;9.40;;
56343;SDS011;42245;42.058;24.700;2023-06-22T00:30:01;10.68;;;9.40;;
56343;SDS011;42245;42.058;24.700;2023-06-22T00:32:26;10.55;;;9.45;;
56343;SDS011;42245;42.058;24.700;2023-06-22T00:34:52;11.32;;;9.88;;
56343;SDS011;42245;42.058;24.700;2023-06-22T00:37:17;11.23;;;9.30;;
56343;SDS011;42245;42.058;24.700;2023-06-22T00:39:43;10.88;;;9.77;;
56343;SDS011;42245;42.058;24.700;2023-06-22T00:42:08;11.38;;;9.82;;
56343;SDS011;42245;42.058;24.700;2023-06-22T00:44:37;10.35;;;9.35;;
56343;SDS011;42245;42.058;24.700;2023-06-22T00:47:03;9.90;;;8.90;;
56343;SDS011;42245;42.058;24.700;2023-06-22T00:49:28;10.90;;;9.45;;
56343;SDS011;42245;42.058;24.700;2023-06-22T00:51:54;10.65;;;9.55;;
56343;SDS011;42245;42.058;24.700;2023-06-22T00:54:20;11.18;;;9.70;;
56343;SDS011;42245;42.058;24.700;2023-06-22T00:56:58;11.93;;;10.23;;
56343;SDS011;42245;42.058;24.700;2023-06-22T00:59:23;12.52;;;9.93;;
56343;SDS011;42245;42.058;24.700;2023-06-22T01:01:51;10.88;;;9.77;;
56343;SDS011;42245;42.058;24.700;2023-06-22T01:04:16;11.57;;;9.63;;
56343;SDS011;42245;42.058;24.700;2023-06-22T01:06:57;13.02;;;10.18;;
56343;SDS011;42245;42.058;24.700;2023-06-22T01:10:23;13.25;;;10.50;;
56343;SDS011;42245;42.058;24.700;2023-06-22T01:12:38;14.07;;;10.85;;
56343;SDS011;42245;42.058;24.700;2023-06-22T01:15:10;12.35;;;10.25;;
56343;SDS011;42245;42.058;24.700;2023-06-22T01:17:38;12.85;;;11.20;;
56343;SDS011;42245;42.058;24.700;2023-06-22T01:20:05;16.60;;;10.40;;
56343;SDS011;42245;42.058;24.700;2023-06-22T01:22:33;12.63;;;10.57;;
56343;SDS011;42245;42.058;24.700;2023-06-22T01:25:43;14.80;;;10.30;;
56343;SDS011;42245;42.058;24.700;2023-06-22T01:28:18;14.75;;;10.43;;
56343;SDS011;42245;42.058;24.700;2023-06-22T01:30:48;12.75;;;10.35;;
56343;SDS011;42245;42.058;24.700;2023-06-22T01:33:14;12.27;;;10.57;;
56343;SDS011;42245;42.058;24.700;2023-06-22T01:35:40;14.68;;;10.30;;
56343;SDS011;42245;42.058;24.700;2023-06-22T01:38:06;13.07;;;10.57;;
56343;SDS011;42245;42.058;24.700;2023-06-22T01:40:33;11.73;;;10.10;;
56343;SDS011;42245;42.058;24.700;2023-06-22T01:43:02;11.73;;;10.02;;
56343;SDS011;42245;42.058;24.700;2023-06-22T01:45:27;13.32;;;10.63;;
56343;SDS011;42245;42.058;24.700;2023-06-22T01:47:53;16.77;;;10.50;;
56343;SDS011;42245;42.058;24.700;2023-06-22T01:50:19;13.60;;;10.75;;
56343;SDS011;42245;42.058;24.700;2023-06-22T01:52:45;12.50;;;11.20;;
56343;SDS011;42245;42.058;24.700;2023-06-22T01:55:10;11.73;;;10.20;;
56343;SDS011;42245;42.058;24.700;2023-06-22T01:57:36;12.80;;;10.48;;
56343;SDS011;42245;42.058;24.700;2023-06-22T02:00:03;14.48;;;10.80;;
56343;SDS011;42245;42.058;24.700;2023-06-22T02:02:35;12.63;;;10.82;;
56343;SDS011;42245;42.058;24.700;2023-06-22T02:05:04;13.60;;;10.52;;
56343;SDS011;42245;42.058;24.700;2023-06-22T02:07:33;11.75;;;10.38;;
56343;SDS011;42245;42.058;24.700;2023-06-22T02:09:59;14.65;;;10.75;;
56343;SDS011;42245;42.058;24.700;2023-06-22T02:12:27;11.73;;;10.52;;
56343;SDS011;42245;42.058;24.700;2023-06-22T02:14:53;14.25;;;11.13;;
56343;SDS011;42245;42.058;24.700;2023-06-22T02:17:19;13.15;;;10.93;;
56343;SDS011;42245;42.058;24.700;2023-06-22T02:19:45;11.93;;;10.48;;
56343;SDS011;42245;42.058;24.700;2023-06-22T02:22:10;13.73;;;11.10;;
56343;SDS011;42245;42.058;24.700;2023-06-22T02:24:38;13.40;;;10.35;;
56343;SDS011;42245;42.058;24.700;2023-06-22T02:27:04;13.68;;;10.20;;
56343;SDS011;42245;42.058;24.700;2023-06-22T02:29:32;14.43;;;10.30;;
56343;SDS011;42245;42.058;24.700;2023-06-22T02:31:57;12.38;;;10.32;;
56343;SDS011;42245;42.058;24.700;2023-06-22T02:34:23;11.65;;;10.45;;
56343;SDS011;42245;42.058;24.700;2023-06-22T02:36:48;13.07;;;9.70;;
56343;SDS011;42245;42.058;24.700;2023-06-22T02:39:21;11.15;;;10.02;;
56343;SDS011;42245;42.058;24.700;2023-06-22T02:41:48;14.13;;;10.10;;
56343;SDS011;42245;42.058;24.700;2023-06-22T02:44:14;12.27;;;10.15;;
56343;SDS011;42245;42.058;24.700;2023-06-22T02:46:40;13.25;;;10.82;;
56343;SDS011;42245;42.058;24.700;2023-06-22T02:49:05;11.13;;;9.57;;
56343;SDS011;42245;42.058;24.700;2023-06-22T02:51:32;14.65;;;9.90;;
56343;SDS011;42245;42.058;24.700;2023-06-22T02:53:59;15.38;;;9.68;;
56343;SDS011;42245;42.058;24.700;2023-06-22T02:56:24;11.23;;;9.73;;
56343;SDS011;42245;42.058;24.700;2023-06-22T02:58:50;10.80;;;9.70;;
56343;SDS011;42245;42.058;24.700;2023-06-22T03:01:16;12.85;;;9.68;;
56343;SDS011;42245;42.058;24.700;2023-06-22T03:03:41;11.07;;;9.90;;
56343;SDS011;42245;42.058;24.700;2023-06-22T03:06:07;14.02;;;9.98;;
56343;SDS011;42245;42.058;24.700;2023-06-22T03:08:32;12.73;;;10.55;;
56343;SDS011;42245;42.058;24.700;2023-06-22T03:10:57;10.75;;;9.65;;
56343;SDS011;42245;42.058;24.700;2023-06-22T03:13:23;12.75;;;10.63;;
56343;SDS011;42245;42.058;24.700;2023-06-22T03:15:48;13.52;;;10.25;;
56343;SDS011;42245;42.058;24.700;2023-06-22T03:18:14;12.07;;;10.73;;
56343;SDS011;42245;42.058;24.700;2023-06-22T03:20:40;12.32;;;10.60;;
56343;SDS011;42245;42.058;24.700;2023-06-22T03:23:06;12.60;;;10.13;;
56343;SDS011;42245;42.058;24.700;2023-06-22T03:25:31;12.80;;;9.52;;
56343;SDS011;42245;42.058;24.700;2023-06-22T03:27:58;12.35;;;9.60;;
56343;SDS011;42245;42.058;24.700;2023-06-22T03:30:26;21.75;;;10.07;;
56343;SDS011;42245;42.058;24.700;2023-06-22T03:32:51;12.75;;;9.98;;
56343;SDS011;42245;42.058;24.700;2023-06-22T03:35:16;12.60;;;9.15;;
56343;SDS011;42245;42.058;24.700;2023-06-22T03:37:42;15.30;;;9.32;;
56343;SDS011;42245;42.058;24.700;2023-06-22T03:40:07;10.65;;;9.02;;
56343;SDS011;42245;42.058;24.700;2023-06-22T03:42:33;25.70;;;10.45;;
56343;SDS011;42245;42.058;24.700;2023-06-22T03:45:00;24.05;;;9.77;;
56343;SDS011;42245;42.058;24.700;2023-06-22T03:47:26;70.97;;;12.57;;
56343;SDS011;42245;42.058;24.700;2023-06-22T03:49:51;13.18;;;8.95;;
56343;SDS011;42245;42.058;24.700;2023-06-22T03:52:19;11.57;;;9.20;;
56343;SDS011;42245;42.058;24.700;2023-06-22T03:54:45;14.52;;;10.65;;
56343;SDS011;42245;42.058;24.700;2023-06-22T03:57:10;15.82;;;9.63;;
56343;SDS011;42245;42.058;24.700;2023-06-22T03:59:36;13.23;;;9.02;;
56343;SDS011;42245;42.058;24.700;2023-06-22T04:02:01;11.10;;;9.52;;
56343;SDS011;42245;42.058;24.700;2023-06-22T04:04:27;11.27;;;9.13;;
56343;SDS011;42245;42.058;24.700;2023-06-22T04:06:53;9.90;;;8.90;;
56343;SDS011;42245;42.058;24.700;2023-06-22T04:09:18;9.95;;;8.95;;
56343;SDS011;42245;42.058;24.700;2023-06-22T04:11:43;12.07;;;9.00;;
56343;SDS011;42245;42.058;24.700;2023-06-22T04:14:09;10.43;;;9.32;;
56343;SDS011;42245;42.058;24.700;2023-06-22T04:16:34;10.07;;;8.07;;
56343;SDS011;42245;42.058;24.700;2023-06-22T04:19:00;12.07;;;8.40;;
56343;SDS011;42245;42.058;24.700;2023-06-22T04:21:25;9.85;;;8.85;;
56343;SDS011;42245;42.058;24.700;2023-06-22T04:23:50;10.05;;;8.75;;
56343;SDS011;42245;42.058;24.700;2023-06-22T04:26:16;14.95;;;8.98;;
56343;SDS011;42245;42.058;24.700;2023-06-22T04:28:41;15.95;;;11.20;;
56343;SDS011;42245;42.058;24.700;2023-06-22T04:31:07;16.73;;;11.57;;
56343;SDS011;42245;42.058;24.700;2023-06-22T04:33:32;12.45;;;11.15;;
56343;SDS011;42245;42.058;24.700;2023-06-22T04:35:58;14.15;;;11.27;;
56343;SDS011;42245;42.058;24.700;2023-06-22T04:38:26;16.80;;;11.55;;
56343;SDS011;42245;42.058;24.700;2023-06-22T04:40:51;18.25;;;11.68;;
56343;SDS011;42245;42.058;24.700;2023-06-22T04:43:18;16.65;;;11.07;;
56343;SDS011;42245;42.058;24.700;2023-06-22T04:45:43;16.95;;;11.13;;
56343;SDS011;42245;42.058;24.700;2023-06-22T04:48:09;15.77;;;11.10;;
56343;SDS011;42245;42.058;24.700;2023-06-22T04:50:35;20.15;;;12.57;;
56343;SDS011;42245;42.058;24.700;2023-06-22T04:53:03;15.23;;;11.85;;
56343;SDS011;42245;42.058;24.700;2023-06-22T04:55:30;16.80;;;12.05;;
56343;SDS011;42245;42.058;24.700;2023-06-22T04:57:56;16.48;;;11.88;;
56343;SDS011;42245;42.058;24.700;2023-06-22T05:00:29;13.95;;;11.82;;
56343;SDS011;42245;42.058;24.700;2023-06-22T05:02:55;15.52;;;11.85;;
56343;SDS011;42245;42.058;24.700;2023-06-22T05:05:23;17.48;;;11.63;;
56343;SDS011;42245;42.058;24.700;2023-06-22T05:07:49;14.55;;;11.13;;
56343;SDS011;42245;42.058;24.700;2023-06-22T05:10:17;15.27;;;10.95;;
56343;SDS011;42245;42.058;24.700;2023-06-22T05:12:44;13.75;;;11.25;;
56343;SDS011;42245;42.058;24.700;2023-06-22T05:15:10;10.98;;;9.73;;
56343;SDS011;42245;42.058;24.700;2023-06-22T05:17:36;10.00;;;8.93;;
56343;SDS011;42245;42.058;24.700;2023-06-22T05:20:06;10.98;;;9.15;;
56343;SDS011;42245;42.058;24.700;2023-06-22T05:22:32;11.95;;;9.88;;
56343;SDS011;42245;42.058;24.700;2023-06-22T05:24:57;13.68;;;11.15;;
56343;SDS011;42245;42.058;24.700;2023-06-22T05:27:23;13.75;;;10.52;;
56343;SDS011;42245;42.058;24.700;2023-06-22T05:29:48;11.95;;;10.35;;
56343;SDS011;42245;42.058;24.700;2023-06-22T05:32:13;14.43;;;11.65;;
56343;SDS011;42245;42.058;24.700;2023-06-22T05:34:39;16.80;;;12.10;;
56343;SDS011;42245;42.058;24.700;2023-06-22T05:37:05;17.90;;;12.38;;
56343;SDS011;42245;42.058;24.700;2023-06-22T05:39:31;15.90;;;12.25;;
56343;SDS011;42245;42.058;24.700;2023-06-22T05:41:56;13.15;;;11.73;;
56343;SDS011;42245;42.058;24.700;2023-06-22T05:44:22;13.98;;;12.23;;
56343;SDS011;42245;42.058;24.700;2023-06-22T05:46:47;21.45;;;13.02;;
56343;SDS011;42245;42.058;24.700;2023-06-22T05:49:13;12.77;;;10.90;;
56343;SDS011;42245;42.058;24.700;2023-06-22T05:51:39;19.20;;;11.15;;
56343;SDS011;42245;42.058;24.700;2023-06-22T05:54:04;15.23;;;10.85;;
56343;SDS011;42245;42.058;24.700;2023-06-22T05:56:30;17.63;;;12.13;;
56343;SDS011;42245;42.058;24.700;2023-06-22T05:58:55;14.52;;;12.18;;
56343;SDS011;42245;42.058;24.700;2023-06-22T06:01:21;14.77;;;11.65;;
56343;SDS011;42245;42.058;24.700;2023-06-22T06:03:46;17.30;;;12.40;;
56343;SDS011;42245;42.058;24.700;2023-06-22T06:06:12;14.63;;;10.82;;
56343;SDS011;42245;42.058;24.700;2023-06-22T06:08:38;15.43;;;11.10;;
56343;SDS011;42245;42.058;24.700;2023-06-22T06:11:03;12.52;;;11.02;;
56343;SDS011;42245;42.058;24.700;2023-06-22T06:13:29;15.90;;;11.20;;
56343;SDS011;42245;42.058;24.700;2023-06-22T06:15:54;16.48;;;11.02;;
56343;SDS011;42245;42.058;24.700;2023-06-22T06:18:20;13.52;;;10.63;;
56343;SDS011;42245;42.058;24.700;2023-06-22T06:20:46;12.98;;;10.65;;
56343;SDS011;42245;42.058;24.700;2023-06-22T06:23:11;12.25;;;9.75;;
56343;SDS011;42245;42.058;24.700;2023-06-22T06:25:37;11.75;;;10.20;;
56343;SDS011;42245;42.058;24.700;2023-06-22T06:28:02;12.20;;;10.15;;
56343;SDS011;42245;42.058;24.700;2023-06-22T06:30:28;13.90;;;10.15;;
56343;SDS011;42245;42.058;24.700;2023-06-22T06:32:54;11.88;;;9.95;;
56343;SDS011;42245;42.058;24.700;2023-06-22T06:35:19;10.43;;;9.40;;
56343;SDS011;42245;42.058;24.700;2023-06-22T06:37:45;10.85;;;9.75;;
56343;SDS011;42245;42.058;24.700;2023-06-22T06:40:13;10.55;;;9.43;;
56343;SDS011;42245;42.058;24.700;2023-06-22T06:42:40;14.90;;;9.07;;
56343;SDS011;42245;42.058;24.700;2023-06-22T06:45:10;11.52;;;10.00;;
56343;SDS011;42245;42.058;24.700;2023-06-22T06:47:58;11.63;;;9.70;;
56343;SDS011;42245;42.058;24.700;2023-06-22T06:50:23;10.60;;;8.57;;
56343;SDS011;42245;42.058;24.700;2023-06-22T06:52:48;10.88;;;8.90;;
56343;SDS011;42245;42.058;24.700;2023-06-22T06:55:15;10.13;;;9.02;;
56343;SDS011;42245;42.058;24.700;2023-06-22T06:57:41;10.32;;;8.77;;
56343;SDS011;42245;42.058;24.700;2023-06-22T07:00:08;14.80;;;8.75;;
56343;SDS011;42245;42.058;24.700;2023-06-22T07:02:41;10.73;;;8.73;;
56343;SDS011;42245;42.058;24.700;2023-06-22T07:05:08;9.70;;;8.30;;
56343;SDS011;42245;42.058;24.700;2023-06-22T07:07:34;9.30;;;8.38;;
56343;SDS011;42245;42.058;24.700;2023-06-22T07:09:59;13.30;;;8.05;;
56343;SDS011;42245;42.058;24.700;2023-06-22T07:12:25;9.65;;;8.60;;
56343;SDS011;42245;42.058;24.700;2023-06-22T07:14:51;10.32;;;8.63;;
56343;SDS011;42245;42.058;24.700;2023-06-22T07:17:17;9.15;;;7.70;;
56343;SDS011;42245;42.058;24.700;2023-06-22T07:19:42;10.60;;;7.80;;
56343;SDS011;42245;42.058;24.700;2023-06-22T07:22:08;8.45;;;7.38;;
56343;SDS011;42245;42.058;24.700;2023-06-22T07:24:33;10.57;;;7.80;;
56343;SDS011;42245;42.058;24.700;2023-06-22T07:26:58;10.50;;;7.80;;
56343;SDS011;42245;42.058;24.700;2023-06-22T07:29:24;9.35;;;7.30;;
56343;SDS011;42245;42.058;24.700;2023-06-22T07:31:51;9.88;;;7.30;;
56343;SDS011;42245;42.058;24.700;2023-06-22T07:34:17;9.15;;;7.88;;
56343;SDS011;42245;42.058;24.700;2023-06-22T07:36:43;8.00;;;7.18;;
56343;SDS011;42245;42.058;24.700;2023-06-22T07:39:09;9.30;;;6.78;;
56343;SDS011;42245;42.058;24.700;2023-06-22T07:41:34;9.15;;;6.63;;
56343;SDS011;42245;42.058;24.700;2023-06-22T07:44:01;10.25;;;6.95;;
56343;SDS011;42245;42.058;24.700;2023-06-22T07:46:28;8.82;;;6.90;;
56343;SDS011;42245;42.058;24.700;2023-06-22T07:48:55;7.82;;;7.03;;
56343;SDS011;42245;42.058;24.700;2023-06-22T07:51:21;8.52;;;7.53;;
56343;SDS011;42245;42.058;24.700;2023-06-22T07:53:46;11.35;;;6.22;;
56343;SDS011;42245;42.058;24.700;2023-06-22T07:56:12;7.80;;;7.00;;
56343;SDS011;42245;42.058;24.700;2023-06-22T07:58:38;11.00;;;6.55;;
56343;SDS011;42245;42.058;24.700;2023-06-22T08:01:03;7.13;;;6.43;;
56343;SDS011;42245;42.058;24.700;2023-06-22T08:03:29;7.28;;;6.57;;
56343;SDS011;42245;42.058;24.700;2023-06-22T08:05:55;7.80;;;6.40;;
56343;SDS011;42245;42.058;24.700;2023-06-22T08:08:20;7.95;;;6.70;;
56343;SDS011;42245;42.058;24.700;2023-06-22T08:10:46;9.88;;;6.53;;
56343;SDS011;42245;42.058;24.700;2023-06-22T08:13:11;7.82;;;7.03;;
56343;SDS011;42245;42.058;24.700;2023-06-22T08:15:37;7.97;;;6.93;;
56343;SDS011;42245;42.058;24.700;2023-06-22T08:18:02;8.68;;;7.20;;
56343;SDS011;42245;42.058;24.700;2023-06-22T08:20:27;10.88;;;7.10;;
56343;SDS011;42245;42.058;24.700;2023-06-22T08:22:53;8.50;;;6.80;;
56343;SDS011;42245;42.058;24.700;2023-06-22T08:25:19;9.82;;;7.30;;
56343;SDS011;42245;42.058;24.700;2023-06-22T08:27:45;8.93;;;6.88;;
56343;SDS011;42245;42.058;24.700;2023-06-22T08:30:15;7.68;;;6.70;;
56343;SDS011;42245;42.058;24.700;2023-06-22T08:32:40;9.30;;;7.50;;
56343;SDS011;42245;42.058;24.700;2023-06-22T08:35:06;7.68;;;6.90;;
56343;SDS011;42245;42.058;24.700;2023-06-22T08:37:34;8.45;;;7.32;;
56343;SDS011;42245;42.058;24.700;2023-06-22T08:40:03;9.57;;;7.20;;
56343;SDS011;42245;42.058;24.700;2023-06-22T08:42:30;7.88;;;7.07;;
56343;SDS011;42245;42.058;24.700;2023-06-22T08:44:56;8.73;;;6.85;;
56343;SDS011;42245;42.058;24.700;2023-06-22T08:47:22;8.88;;;7.05;;
56343;SDS011;42245;42.058;24.700;2023-06-22T08:49:48;8.43;;;7.10;;
56343;SDS011;42245;42.058;24.700;2023-06-22T08:52:14;7.72;;;6.82;;
56343;SDS011;42245;42.058;24.700;2023-06-22T08:54:39;9.55;;;7.00;;
56343;SDS011;42245;42.058;24.700;2023-06-22T08:57:05;9.85;;;6.75;;
56343;SDS011;42245;42.058;24.700;2023-06-22T08:59:30;12.82;;;7.03;;
56343;SDS011;42245;42.058;24.700;2023-06-22T09:01:56;8.27;;;6.72;;
56343;SDS011;42245;42.058;24.700;2023-06-22T09:04:22;7.65;;;6.63;;
56343;SDS011;42245;42.058;24.700;2023-06-22T09:06:47;8.45;;;7.30;;
56343;SDS011;42245;42.058;24.700;2023-06-22T09:09:15;10.95;;;6.95;;
56343;SDS011;42245;42.058;24.700;2023-06-22T09:11:40;12.30;;;6.88;;
56343;SDS011;42245;42.058;24.700;2023-06-22T09:14:06;9.50;;;7.05;;
56343;SDS011;42245;42.058;24.700;2023-06-22T09:16:32;7.32;;;6.50;;
56343;SDS011;42245;42.058;24.700;2023-06-22T09:18:57;7.85;;;6.75;;
56343;SDS011;42245;42.058;24.700;2023-06-22T09:21:23;7.88;;;7.07;;
56343;SDS011;42245;42.058;24.700;2023-06-22T09:23:48;8.20;;;7.05;;
56343;SDS011;42245;42.058;24.700;2023-06-22T09:26:19;10.38;;;7.18;;
56343;SDS011;42245;42.058;24.700;2023-06-22T09:28:44;7.80;;;6.95;;
56343;SDS011;42245;42.058;24.700;2023-06-22T09:31:10;9.45;;;6.70;;
56343;SDS011;42245;42.058;24.700;2023-06-22T09:33:36;6.95;;;6.30;;
56343;SDS011;42245;42.058;24.700;2023-06-22T09:36:04;7.05;;;6.35;;
56343;SDS011;42245;42.058;24.700;2023-06-22T09:38:34;7.55;;;6.50;;
56343;SDS011;42245;42.058;24.700;2023-06-22T09:41:02;6.70;;;6.10;;
56343;SDS011;42245;42.058;24.700;2023-06-22T09:43:29;7.53;;;6.78;;
56343;SDS011;42245;42.058;24.700;2023-06-22T09:45:56;6.80;;;6.10;;
56343;SDS011;42245;42.058;24.700;2023-06-22T09:48:21;7.72;;;6.40;;
56343;SDS011;42245;42.058;24.700;2023-06-22T09:50:47;6.70;;;6.10;;
56343;SDS011;42245;42.058;24.700;2023-06-22T09:53:12;7.47;;;6.78;;
56343;SDS011;42245;42.058;24.700;2023-06-22T09:55:38;8.95;;;6.70;;
56343;SDS011;42245;42.058;24.700;2023-06-22T09:58:03;7.57;;;6.82;;
56343;SDS011;42245;42.058;24.700;2023-06-22T10:00:29;7.57;;;6.40;;
56343;SDS011;42245;42.058;24.700;2023-06-22T10:02:54;7.78;;;6.97;;
56343;SDS011;42245;42.058;24.700;2023-06-22T10:05:21;8.32;;;6.85;;
56343;SDS011;42245;42.058;24.700;2023-06-22T10:07:47;11.90;;;7.35;;
56343;SDS011;42245;42.058;24.700;2023-06-22T10:10:12;9.05;;;7.35;;
56343;SDS011;42245;42.058;24.700;2023-06-22T10:12:41;7.07;;;6.40;;
56343;SDS011;42245;42.058;24.700;2023-06-22T10:15:09;8.00;;;7.20;;
56343;SDS011;42245;42.058;24.700;2023-06-22T10:17:35;7.32;;;6.68;;
56343;SDS011;42245;42.058;24.700;2023-06-22T10:20:00;7.40;;;6.70;;
56343;SDS011;42245;42.058;24.700;2023-06-22T10:22:30;13.25;;;6.93;;
56343;SDS011;42245;42.058;24.700;2023-06-22T10:24:56;7.93;;;6.72;;
56343;SDS011;42245;42.058;24.700;2023-06-22T10:27:21;8.50;;;6.72;;
56343;SDS011;42245;42.058;24.700;2023-06-22T10:29:47;11.52;;;7.72;;
56343;SDS011;42245;42.058;24.700;2023-06-22T10:32:12;7.63;;;6.93;;
56343;SDS011;42245;42.058;24.700;2023-06-22T10:34:37;10.82;;;7.10;;
56343;SDS011;42245;42.058;24.700;2023-06-22T10:37:03;10.90;;;7.15;;
56343;SDS011;42245;42.058;24.700;2023-06-22T10:39:29;8.77;;;6.85;;
56343;SDS011;42245;42.058;24.700;2023-06-22T10:41:54;8.00;;;7.20;;
56343;SDS011;42245;42.058;24.700;2023-06-22T10:44:21;7.72;;;6.93;;
56343;SDS011;42245;42.058;24.700;2023-06-22T10:46:46;10.18;;;6.80;;
56343;SDS011;42245;42.058;24.700;2023-06-22T10:49:12;8.20;;;7.20;;
56343;SDS011;42245;42.058;24.700;2023-06-22T10:51:37;7.68;;;6.60;;
56343;SDS011;42245;42.058;24.700;2023-06-22T10:54:02;10.75;;;6.90;;
56343;SDS011;42245;42.058;24.700;2023-06-22T10:56:29;8.40;;;6.63;;
56343;SDS011;42245;42.058;24.700;2023-06-22T10:58:54;9.80;;;7.25;;
56343;SDS011;42245;42.058;24.700;2023-06-22T11:01:20;9.55;;;6.38;;
56343;SDS011;42245;42.058;24.700;2023-06-22T11:03:45;8.05;;;6.90;;
56343;SDS011;42245;42.058;24.700;2023-06-22T11:06:11;10.07;;;7.00;;
56343;SDS011;42245;42.058;24.700;2023-06-22T11:08:36;7.43;;;6.72;;
56343;SDS011;42245;42.058;24.700;2023-06-22T11:11:02;8.75;;;6.80;;
56343;SDS011;42245;42.058;24.700;2023-06-22T11:13:27;7.97;;;6.72;;
56343;SDS011;42245;42.058;24.700;2023-06-22T11:15:52;7.20;;;6.50;;
56343;SDS011;42245;42.058;24.700;2023-06-22T11:18:18;8.85;;;6.72;;
56343;SDS011;42245;42.058;24.700;2023-06-22T11:20:43;8.32;;;7.05;;
56343;SDS011;42245;42.058;24.700;2023-06-22T11:23:09;11.93;;;7.07;;
56343;SDS011;42245;42.058;24.700;2023-06-22T11:25:36;8.45;;;6.85;;
56343;SDS011;42245;42.058;24.700;2023-06-22T11:28:03;11.27;;;7.50;;
56343;SDS011;42245;42.058;24.700;2023-06-22T11:30:29;8.80;;;7.13;;
56343;SDS011;42245;42.058;24.700;2023-06-22T11:32:54;9.80;;;7.38;;
56343;SDS011;42245;42.058;24.700;2023-06-22T11:35:21;7.78;;;7.05;;
56343;SDS011;42245;42.058;24.700;2023-06-22T11:37:46;8.70;;;6.70;;
56343;SDS011;42245;42.058;24.700;2023-06-22T11:40:12;9.32;;;6.78;;
56343;SDS011;42245;42.058;24.700;2023-06-22T11:42:37;9.20;;;7.82;;
56343;SDS011;42245;42.058;24.700;2023-06-22T11:45:04;10.88;;;7.60;;
56343;SDS011;42245;42.058;24.700;2023-06-22T11:47:30;14.05;;;7.72;;
56343;SDS011;42245;42.058;24.700;2023-06-22T11:49:55;11.27;;;7.57;;
56343;SDS011;42245;42.058;24.700;2023-06-22T11:52:21;7.95;;;7.25;;
56343;SDS011;42245;42.058;24.700;2023-06-22T11:54:46;9.40;;;7.50;;
56343;SDS011;42245;42.058;24.700;2023-06-22T11:57:12;8.45;;;7.57;;
56343;SDS011;42245;42.058;24.700;2023-06-22T11:59:37;8.52;;;7.65;;
56343;SDS011;42245;42.058;24.700;2023-06-22T12:02:03;10.25;;;7.50;;
56343;SDS011;42245;42.058;24.700;2023-06-22T12:04:30;8.23;;;7.20;;
56343;SDS011;42245;42.058;24.700;2023-06-22T12:06:55;7.93;;;7.18;;
56343;SDS011;42245;42.058;24.700;2023-06-22T12:09:21;8.18;;;7.38;;
56343;SDS011;42245;42.058;24.700;2023-06-22T12:11:46;14.93;;;7.63;;
56343;SDS011;42245;42.058;24.700;2023-06-22T12:14:12;8.63;;;7.82;;
56343;SDS011;42245;42.058;24.700;2023-06-22T12:16:37;9.45;;;8.55;;
56343;SDS011;42245;42.058;24.700;2023-06-22T12:19:03;8.73;;;7.85;;
56343;SDS011;42245;42.058;24.700;2023-06-22T12:21:28;11.75;;;7.90;;
56343;SDS011;42245;42.058;24.700;2023-06-22T12:23:54;10.65;;;8.15;;
56343;SDS011;42245;42.058;24.700;2023-06-22T12:26:19;11.55;;;8.13;;
56343;SDS011;42245;42.058;24.700;2023-06-22T12:28:44;9.23;;;8.20;;
56343;SDS011;42245;42.058;24.700;2023-06-22T12:31:10;13.90;;;8.25;;
56343;SDS011;42245;42.058;24.700;2023-06-22T12:33:35;10.45;;;7.70;;
56343;SDS011;42245;42.058;24.700;2023-06-22T12:36:01;8.93;;;8.02;;
56343;SDS011;42245;42.058;24.700;2023-06-22T12:38:26;9.52;;;8.40;;
56343;SDS011;42245;42.058;24.700;2023-06-22T12:40:52;9.80;;;7.78;;
56343;SDS011;42245;42.058;24.700;2023-06-22T12:43:18;10.70;;;8.40;;
56343;SDS011;42245;42.058;24.700;2023-06-22T12:45:43;9.25;;;8.32;;
56343;SDS011;42245;42.058;24.700;2023-06-22T12:48:08;10.77;;;8.15;;
56343;SDS011;42245;42.058;24.700;2023-06-22T12:50:34;11.02;;;8.25;;
56343;SDS011;42245;42.058;24.700;2023-06-22T12:52:59;10.88;;;8.23;;
56343;SDS011;42245;42.058;24.700;2023-06-22T12:55:27;10.32;;;7.93;;
56343;SDS011;42245;42.058;24.700;2023-06-22T12:57:52;9.25;;;8.38;;
56343;SDS011;42245;42.058;24.700;2023-06-22T13:00:17;9.35;;;7.95;;
56343;SDS011;42245;42.058;24.700;2023-06-22T13:02:43;9.30;;;8.35;;
56343;SDS011;42245;42.058;24.700;2023-06-22T13:05:08;8.85;;;7.80;;
56343;SDS011;42245;42.058;24.700;2023-06-22T13:07:34;9.25;;;8.25;;
56343;SDS011;42245;42.058;24.700;2023-06-22T13:09:59;9.85;;;8.73;;
56343;SDS011;42245;42.058;24.700;2023-06-22T13:12:25;9.15;;;8.25;;
56343;SDS011;42245;42.058;24.700;2023-06-22T13:14:50;10.93;;;8.15;;
56343;SDS011;42245;42.058;24.700;2023-06-22T13:17:15;15.80;;;8.80;;
56343;SDS011;42245;42.058;24.700;2023-06-22T13:19:41;9.88;;;8.88;;
56343;SDS011;42245;42.058;24.700;2023-06-22T13:22:28;11.40;;;8.15;;
56343;SDS011;42245;42.058;24.700;2023-06-22T13:25:04;16.15;;;8.98;;
56343;SDS011;42245;42.058;24.700;2023-06-22T13:27:30;10.60;;;8.40;;
56343;SDS011;42245;42.058;24.700;2023-06-22T13:29:56;13.05;;;8.35;;
56343;SDS011;42245;42.058;24.700;2023-06-22T13:32:21;9.50;;;8.60;;
56343;SDS011;42245;42.058;24.700;2023-06-22T13:34:47;14.52;;;8.82;;
56343;SDS011;42245;42.058;24.700;2023-06-22T13:37:12;10.98;;;9.23;;
56343;SDS011;42245;42.058;24.700;2023-06-22T13:39:37;14.90;;;8.73;;
56343;SDS011;42245;42.058;24.700;2023-06-22T13:42:03;12.77;;;8.23;;
56343;SDS011;42245;42.058;24.700;2023-06-22T13:44:28;10.40;;;8.32;;
56343;SDS011;42245;42.058;24.700;2023-06-22T13:46:57;12.45;;;8.57;;
56343;SDS011;42245;42.058;24.700;2023-06-22T13:49:22;8.82;;;8.02;;
56343;SDS011;42245;42.058;24.700;2023-06-22T13:51:48;13.48;;;10.02;;
56343;SDS011;42245;42.058;24.700;2023-06-22T13:54:14;10.15;;;8.75;;
56343;SDS011;42245;42.058;24.700;2023-06-22T13:56:40;10.50;;;9.18;;
56343;SDS011;42245;42.058;24.700;2023-06-22T13:59:05;10.02;;;9.02;;
56343;SDS011;42245;42.058;24.700;2023-06-22T14:01:32;11.10;;;8.90;;
56343;SDS011;42245;42.058;24.700;2023-06-22T14:03:57;11.13;;;8.82;;
56343;SDS011;42245;42.058;24.700;2023-06-22T14:06:23;11.55;;;9.00;;
56343;SDS011;42245;42.058;24.700;2023-06-22T14:08:48;10.13;;;9.05;;
56343;SDS011;42245;42.058;24.700;2023-06-22T14:11:16;20.50;;;9.88;;
56343;SDS011;42245;42.058;24.700;2023-06-22T14:13:41;18.60;;;10.35;;
56343;SDS011;42245;42.058;24.700;2023-06-22T14:16:07;16.83;;;10.98;;
56343;SDS011;42245;42.058;24.700;2023-06-22T14:18:33;20.15;;;11.98;;